sensor_id;sensor_type;location;lat;lon;timestamp;temperature;humidity
33655;DHT22;19997;51.274;22.506;2023-04-28T00:00:02;7.20;82.10
33655;DHT22;19997;51.274;22.506;2023-04-28T00:02:30;7.20;82.00
33655;DHT22;19997;51.274;22.506;2023-04-28T00:04:58;7.20;82.00
33655;DHT22;19997;51.274;22.506;2023-04-28T00:07:27;7.20;81.80
33655;DHT22;19997;51.274;22.506;2023-04-28T00:09:54;7.20;81.80
33655;DHT22;19997;51.274;22.506;2023-04-28T00:12:21;7.20;81.70
33655;DHT22;19997;51.274;22.506;2023-04-28T00:14:48;7.10;81.60
33655;DHT22;19997;51.274;22.506;2023-04-28T00:17:15;7.10;81.60
33655;DHT22;19997;51.274;22.506;2023-04-28T00:19:42;7.10;81.70
33655;DHT22;19997;51.274;22.506;2023-04-28T00:22:10;7.00;81.60
33655;DHT22;19997;51.274;22.506;2023-04-28T00:24:38;7.00;81.60
33655;DHT22;19997;51.274;22.506;2023-04-28T00:27:06;6.90;81.60
33655;DHT22;19997;51.274;22.506;2023-04-28T00:29:33;6.90;81.70
33655;DHT22;19997;51.274;22.506;2023-04-28T00:32:01;6.80;81.80
33655;DHT22;19997;51.274;22.506;2023-04-28T00:34:31;6.70;81.80
33655;DHT22;19997;51.274;22.506;2023-04-28T00:36:58;6.70;81.80
33655;DHT22;19997;51.274;22.506;2023-04-28T00:39:25;6.70;81.90
33655;DHT22;19997;51.274;22.506;2023-04-28T00:41:54;6.70;81.90
33655;DHT22;19997;51.274;22.506;2023-04-28T00:44:21;6.60;81.90
33655;DHT22;19997;51.274;22.506;2023-04-28T00:46:48;6.60;82.10
33655;DHT22;19997;51.274;22.506;2023-04-28T00:49:15;6.50;82.20
33655;DHT22;19997;51.274;22.506;2023-04-28T00:51:43;6.50;82.30
33655;DHT22;19997;51.274;22.506;2023-04-28T00:54:12;6.50;82.40
33655;DHT22;19997;51.274;22.506;2023-04-28T00:56:40;6.40;82.50
33655;DHT22;19997;51.274;22.506;2023-04-28T00:59:08;6.30;82.70
33655;DHT22;19997;51.274;22.506;2023-04-28T01:01:35;6.30;83.00
33655;DHT22;19997;51.274;22.506;2023-04-28T01:04:03;6.20;83.00
33655;DHT22;19997;51.274;22.506;2023-04-28T01:06:31;6.10;83.10
33655;DHT22;19997;51.274;22.506;2023-04-28T01:09:00;6.10;83.20
33655;DHT22;19997;51.274;22.506;2023-04-28T01:11:27;6.00;83.40
33655;DHT22;19997;51.274;22.506;2023-04-28T01:14:08;6.00;83.50
33655;DHT22;19997;51.274;22.506;2023-04-28T01:16:37;5.90;83.80
33655;DHT22;19997;51.274;22.506;2023-04-28T01:19:06;5.90;83.90
33655;DHT22;19997;51.274;22.506;2023-04-28T01:21:35;5.90;84.20
33655;DHT22;19997;51.274;22.506;2023-04-28T01:24:23;5.80;84.30
33655;DHT22;19997;51.274;22.506;2023-04-28T01:26:50;5.80;84.30
33655;DHT22;19997;51.274;22.506;2023-04-28T01:29:17;5.80;84.40
33655;DHT22;19997;51.274;22.506;2023-04-28T01:31:45;5.80;84.50
33655;DHT22;19997;51.274;22.506;2023-04-28T01:34:12;5.80;84.50
33655;DHT22;19997;51.274;22.506;2023-04-28T01:36:39;5.70;84.70
33655;DHT22;19997;51.274;22.506;2023-04-28T01:39:06;5.70;84.70
33655;DHT22;19997;51.274;22.506;2023-04-28T01:41:34;5.70;84.80
33655;DHT22;19997;51.274;22.506;2023-04-28T01:44:03;5.70;85.00
33655;DHT22;19997;51.274;22.506;2023-04-28T01:46:32;5.60;84.90
33655;DHT22;19997;51.274;22.506;2023-04-28T01:48:59;5.60;85.00
33655;DHT22;19997;51.274;22.506;2023-04-28T01:51:26;5.60;85.00
33655;DHT22;19997;51.274;22.506;2023-04-28T01:53:54;5.60;85.00
33655;DHT22;19997;51.274;22.506;2023-04-28T01:56:21;5.60;85.30
33655;DHT22;19997;51.274;22.506;2023-04-28T01:58:51;5.60;85.50
33655;DHT22;19997;51.274;22.506;2023-04-28T02:01:18;5.60;85.50
33655;DHT22;19997;51.274;22.506;2023-04-28T02:03:45;5.60;85.60
33655;DHT22;19997;51.274;22.506;2023-04-28T02:06:13;5.50;85.70
33655;DHT22;19997;51.274;22.506;2023-04-28T02:08:40;5.50;85.80
33655;DHT22;19997;51.274;22.506;2023-04-28T02:11:07;5.50;85.90
33655;DHT22;19997;51.274;22.506;2023-04-28T02:13:34;5.50;86.10
33655;DHT22;19997;51.274;22.506;2023-04-28T02:16:03;5.60;86.20
33655;DHT22;19997;51.274;22.506;2023-04-28T02:18:30;5.50;86.20
33655;DHT22;19997;51.274;22.506;2023-04-28T02:21:07;5.60;86.30
33655;DHT22;19997;51.274;22.506;2023-04-28T02:23:34;5.60;86.30
33655;DHT22;19997;51.274;22.506;2023-04-28T02:26:04;5.70;86.40
33655;DHT22;19997;51.274;22.506;2023-04-28T02:28:31;5.70;86.30
33655;DHT22;19997;51.274;22.506;2023-04-28T02:31:07;5.80;86.30
33655;DHT22;19997;51.274;22.506;2023-04-28T02:33:34;5.80;86.20
33655;DHT22;19997;51.274;22.506;2023-04-28T02:36:03;5.80;86.10
33655;DHT22;19997;51.274;22.506;2023-04-28T02:38:31;5.90;86.00
33655;DHT22;19997;51.274;22.506;2023-04-28T02:40:58;5.90;86.00
33655;DHT22;19997;51.274;22.506;2023-04-28T02:43:25;5.90;86.00
33655;DHT22;19997;51.274;22.506;2023-04-28T02:45:53;5.90;85.90
33655;DHT22;19997;51.274;22.506;2023-04-28T02:48:22;6.00;85.80
33655;DHT22;19997;51.274;22.506;2023-04-28T02:50:50;6.00;85.70
33655;DHT22;19997;51.274;22.506;2023-04-28T02:53:18;6.10;85.70
33655;DHT22;19997;51.274;22.506;2023-04-28T02:55:45;6.10;85.50
33655;DHT22;19997;51.274;22.506;2023-04-28T02:58:12;6.10;85.50
33655;DHT22;19997;51.274;22.506;2023-04-28T03:00:39;6.20;85.50
33655;DHT22;19997;51.274;22.506;2023-04-28T03:03:07;6.20;85.40
33655;DHT22;19997;51.274;22.506;2023-04-28T03:05:35;6.20;85.30
33655;DHT22;19997;51.274;22.506;2023-04-28T03:08:03;6.30;85.30
33655;DHT22;19997;51.274;22.506;2023-04-28T03:10:30;6.30;85.20
33655;DHT22;19997;51.274;22.506;2023-04-28T03:12:57;6.40;85.20
33655;DHT22;19997;51.274;22.506;2023-04-28T03:15:24;6.40;85.30
33655;DHT22;19997;51.274;22.506;2023-04-28T03:17:51;6.40;85.50
33655;DHT22;19997;51.274;22.506;2023-04-28T03:20:18;6.30;85.50
33655;DHT22;19997;51.274;22.506;2023-04-28T03:22:47;6.30;85.60
33655;DHT22;19997;51.274;22.506;2023-04-28T03:25:14;6.30;85.70
33655;DHT22;19997;51.274;22.506;2023-04-28T03:27:47;6.30;85.70
33655;DHT22;19997;51.274;22.506;2023-04-28T03:30:14;6.20;85.70
33655;DHT22;19997;51.274;22.506;2023-04-28T03:32:41;6.20;85.80
33655;DHT22;19997;51.274;22.506;2023-04-28T03:35:08;6.10;86.10
33655;DHT22;19997;51.274;22.506;2023-04-28T03:37:37;6.00;86.20
33655;DHT22;19997;51.274;22.506;2023-04-28T03:40:07;6.00;86.60
33655;DHT22;19997;51.274;22.506;2023-04-28T03:42:55;5.90;86.90
33655;DHT22;19997;51.274;22.506;2023-04-28T03:45:27;5.80;87.30
33655;DHT22;19997;51.274;22.506;2023-04-28T03:47:55;5.80;87.60
33655;DHT22;19997;51.274;22.506;2023-04-28T03:50:22;5.80;87.90
33655;DHT22;19997;51.274;22.506;2023-04-28T03:52:49;5.70;88.20
33655;DHT22;19997;51.274;22.506;2023-04-28T03:55:18;5.70;88.40
33655;DHT22;19997;51.274;22.506;2023-04-28T03:57:45;5.70;88.70
33655;DHT22;19997;51.274;22.506;2023-04-28T04:00:13;5.70;88.90
33655;DHT22;19997;51.274;22.506;2023-04-28T04:02:46;5.70;89.30
33655;DHT22;19997;51.274;22.506;2023-04-28T04:05:15;5.70;89.60
33655;DHT22;19997;51.274;22.506;2023-04-28T04:07:42;5.70;89.80
33655;DHT22;19997;51.274;22.506;2023-04-28T04:10:09;5.70;89.90
33655;DHT22;19997;51.274;22.506;2023-04-28T04:12:40;5.70;90.10
33655;DHT22;19997;51.274;22.506;2023-04-28T04:15:08;5.70;90.10
33655;DHT22;19997;51.274;22.506;2023-04-28T04:17:37;5.70;90.10
33655;DHT22;19997;51.274;22.506;2023-04-28T04:20:05;5.70;90.10
33655;DHT22;19997;51.274;22.506;2023-04-28T04:22:32;5.80;90.10
33655;DHT22;19997;51.274;22.506;2023-04-28T04:24:59;5.80;90.00
33655;DHT22;19997;51.274;22.506;2023-04-28T04:27:27;5.90;90.10
33655;DHT22;19997;51.274;22.506;2023-04-28T04:29:55;5.90;90.40
33655;DHT22;19997;51.274;22.506;2023-04-28T04:32:23;6.00;90.00
33655;DHT22;19997;51.274;22.506;2023-04-28T04:34:50;6.00;89.70
33655;DHT22;19997;51.274;22.506;2023-04-28T04:37:17;6.10;89.60
33655;DHT22;19997;51.274;22.506;2023-04-28T04:39:51;6.10;89.20
33655;DHT22;19997;51.274;22.506;2023-04-28T04:42:18;6.20;89.00
33655;DHT22;19997;51.274;22.506;2023-04-28T04:44:51;6.30;88.80
33655;DHT22;19997;51.274;22.506;2023-04-28T04:47:30;6.40;88.60
33655;DHT22;19997;51.274;22.506;2023-04-28T04:49:58;6.40;88.20
33655;DHT22;19997;51.274;22.506;2023-04-28T04:52:25;6.50;87.90
33655;DHT22;19997;51.274;22.506;2023-04-28T04:54:52;6.60;87.60
33655;DHT22;19997;51.274;22.506;2023-04-28T04:57:22;6.70;87.20
33655;DHT22;19997;51.274;22.506;2023-04-28T05:00:09;6.80;87.00
33655;DHT22;19997;51.274;22.506;2023-04-28T05:02:38;6.80;86.60
33655;DHT22;19997;51.274;22.506;2023-04-28T05:05:06;6.90;86.30
33655;DHT22;19997;51.274;22.506;2023-04-28T05:07:34;7.00;86.10
33655;DHT22;19997;51.274;22.506;2023-04-28T05:10:01;7.00;86.00
33655;DHT22;19997;51.274;22.506;2023-04-28T05:12:29;7.10;84.80
33655;DHT22;19997;51.274;22.506;2023-04-28T05:14:56;7.10;84.60
33655;DHT22;19997;51.274;22.506;2023-04-28T05:17:26;7.30;84.40
33655;DHT22;19997;51.274;22.506;2023-04-28T05:19:56;7.30;84.30
33655;DHT22;19997;51.274;22.506;2023-04-28T05:22:23;7.40;84.20
33655;DHT22;19997;51.274;22.506;2023-04-28T05:24:51;7.50;83.80
33655;DHT22;19997;51.274;22.506;2023-04-28T05:27:18;7.60;83.10
33655;DHT22;19997;51.274;22.506;2023-04-28T05:29:46;7.70;82.70
33655;DHT22;19997;51.274;22.506;2023-04-28T05:32:13;7.80;82.30
33655;DHT22;19997;51.274;22.506;2023-04-28T05:34:40;7.90;82.10
33655;DHT22;19997;51.274;22.506;2023-04-28T05:37:09;8.00;81.40
33655;DHT22;19997;51.274;22.506;2023-04-28T05:39:38;8.10;80.80
33655;DHT22;19997;51.274;22.506;2023-04-28T05:42:05;8.10;80.00
33655;DHT22;19997;51.274;22.506;2023-04-28T05:44:34;8.20;79.70
33655;DHT22;19997;51.274;22.506;2023-04-28T05:47:01;8.30;80.00
33655;DHT22;19997;51.274;22.506;2023-04-28T05:49:28;8.40;79.20
33655;DHT22;19997;51.274;22.506;2023-04-28T05:51:55;8.50;78.80
33655;DHT22;19997;51.274;22.506;2023-04-28T05:54:23;8.50;78.30
33655;DHT22;19997;51.274;22.506;2023-04-28T05:56:52;8.70;78.30
33655;DHT22;19997;51.274;22.506;2023-04-28T05:59:19;8.80;77.50
33655;DHT22;19997;51.274;22.506;2023-04-28T06:01:46;8.90;77.30
33655;DHT22;19997;51.274;22.506;2023-04-28T06:04:15;8.90;76.80
33655;DHT22;19997;51.274;22.506;2023-04-28T06:06:43;9.00;76.50
33655;DHT22;19997;51.274;22.506;2023-04-28T06:09:10;9.10;75.20
33655;DHT22;19997;51.274;22.506;2023-04-28T06:11:38;9.20;74.20
33655;DHT22;19997;51.274;22.506;2023-04-28T06:14:06;9.20;73.10
33655;DHT22;19997;51.274;22.506;2023-04-28T06:16:33;9.30;73.70
33655;DHT22;19997;51.274;22.506;2023-04-28T06:19:01;9.40;73.80
33655;DHT22;19997;51.274;22.506;2023-04-28T06:21:28;9.50;73.60
33655;DHT22;19997;51.274;22.506;2023-04-28T06:23:56;9.60;73.40
33655;DHT22;19997;51.274;22.506;2023-04-28T06:26:24;9.70;72.10
33655;DHT22;19997;51.274;22.506;2023-04-28T06:28:52;9.80;71.10
33655;DHT22;19997;51.274;22.506;2023-04-28T06:31:19;9.90;70.00
33655;DHT22;19997;51.274;22.506;2023-04-28T06:33:47;10.00;70.50
33655;DHT22;19997;51.274;22.506;2023-04-28T06:36:14;10.00;70.40
33655;DHT22;19997;51.274;22.506;2023-04-28T06:38:42;10.10;70.50
33655;DHT22;19997;51.274;22.506;2023-04-28T06:41:09;10.20;70.40
33655;DHT22;19997;51.274;22.506;2023-04-28T06:43:37;10.40;70.60
33655;DHT22;19997;51.274;22.506;2023-04-28T06:46:14;10.50;70.20
33655;DHT22;19997;51.274;22.506;2023-04-28T06:48:42;10.60;68.90
33655;DHT22;19997;51.274;22.506;2023-04-28T06:51:09;10.70;67.00
33655;DHT22;19997;51.274;22.506;2023-04-28T06:53:36;10.70;66.90
33655;DHT22;19997;51.274;22.506;2023-04-28T06:56:07;10.80;65.80
33655;DHT22;19997;51.274;22.506;2023-04-28T06:58:34;10.90;62.30
33655;DHT22;19997;51.274;22.506;2023-04-28T07:01:01;11.00;61.40
33655;DHT22;19997;51.274;22.506;2023-04-28T07:03:31;11.00;61.40
33655;DHT22;19997;51.274;22.506;2023-04-28T07:05:58;11.00;61.40
33655;DHT22;19997;51.274;22.506;2023-04-28T07:08:26;11.20;60.80
33655;DHT22;19997;51.274;22.506;2023-04-28T07:10:55;11.20;61.00
33655;DHT22;19997;51.274;22.506;2023-04-28T07:13:22;11.30;60.00
33655;DHT22;19997;51.274;22.506;2023-04-28T07:15:49;11.30;60.20
33655;DHT22;19997;51.274;22.506;2023-04-28T07:18:17;11.30;58.30
33655;DHT22;19997;51.274;22.506;2023-04-28T07:20:45;11.40;58.20
33655;DHT22;19997;51.274;22.506;2023-04-28T07:23:12;11.50;56.70
33655;DHT22;19997;51.274;22.506;2023-04-28T07:25:40;11.50;55.90
33655;DHT22;19997;51.274;22.506;2023-04-28T07:28:09;11.70;55.60
33655;DHT22;19997;51.274;22.506;2023-04-28T07:30:36;11.80;56.00
33655;DHT22;19997;51.274;22.506;2023-04-28T07:33:03;11.90;53.50
33655;DHT22;19997;51.274;22.506;2023-04-28T07:35:30;12.00;53.10
33655;DHT22;19997;51.274;22.506;2023-04-28T07:37:59;12.10;50.60
33655;DHT22;19997;51.274;22.506;2023-04-28T07:40:26;12.20;50.60
33655;DHT22;19997;51.274;22.506;2023-04-28T07:42:53;12.50;51.90
33655;DHT22;19997;51.274;22.506;2023-04-28T07:45:20;12.90;50.30
33655;DHT22;19997;51.274;22.506;2023-04-28T07:47:48;13.10;49.60
33655;DHT22;19997;51.274;22.506;2023-04-28T07:50:15;13.10;47.70
33655;DHT22;19997;51.274;22.506;2023-04-28T07:52:42;13.10;47.10
33655;DHT22;19997;51.274;22.506;2023-04-28T07:55:11;13.00;48.10
33655;DHT22;19997;51.274;22.506;2023-04-28T07:57:38;13.00;48.20
33655;DHT22;19997;51.274;22.506;2023-04-28T08:00:07;13.10;47.40
33655;DHT22;19997;51.274;22.506;2023-04-28T08:02:39;13.10;46.00
33655;DHT22;19997;51.274;22.506;2023-04-28T08:05:06;13.00;45.60
33655;DHT22;19997;51.274;22.506;2023-04-28T08:07:34;13.00;46.30
33655;DHT22;19997;51.274;22.506;2023-04-28T08:10:01;13.00;46.60
33655;DHT22;19997;51.274;22.506;2023-04-28T08:12:30;12.90;46.50
33655;DHT22;19997;51.274;22.506;2023-04-28T08:14:57;13.00;46.70
33655;DHT22;19997;51.274;22.506;2023-04-28T08:17:24;13.00;46.70
33655;DHT22;19997;51.274;22.506;2023-04-28T08:19:51;13.10;46.90
33655;DHT22;19997;51.274;22.506;2023-04-28T08:22:18;13.10;46.80
33655;DHT22;19997;51.274;22.506;2023-04-28T08:24:45;13.20;46.60
33655;DHT22;19997;51.274;22.506;2023-04-28T08:27:12;13.30;45.90
33655;DHT22;19997;51.274;22.506;2023-04-28T08:29:41;13.30;46.20
33655;DHT22;19997;51.274;22.506;2023-04-28T08:32:08;13.30;46.50
33655;DHT22;19997;51.274;22.506;2023-04-28T08:34:35;13.30;46.00
33655;DHT22;19997;51.274;22.506;2023-04-28T08:37:02;13.40;45.20
33655;DHT22;19997;51.274;22.506;2023-04-28T08:39:31;13.40;45.40
33655;DHT22;19997;51.274;22.506;2023-04-28T08:41:59;13.60;45.30
33655;DHT22;19997;51.274;22.506;2023-04-28T08:44:33;13.60;44.80
33655;DHT22;19997;51.274;22.506;2023-04-28T08:47:10;13.70;44.70
33655;DHT22;19997;51.274;22.506;2023-04-28T08:49:38;13.80;44.50
33655;DHT22;19997;51.274;22.506;2023-04-28T08:52:09;14.00;44.00
33655;DHT22;19997;51.274;22.506;2023-04-28T08:54:38;14.10;43.90
33655;DHT22;19997;51.274;22.506;2023-04-28T08:57:07;14.30;44.60
33655;DHT22;19997;51.274;22.506;2023-04-28T08:59:37;14.40;44.10
33655;DHT22;19997;51.274;22.506;2023-04-28T09:02:07;14.60;44.20
33655;DHT22;19997;51.274;22.506;2023-04-28T09:04:34;14.60;43.00
33655;DHT22;19997;51.274;22.506;2023-04-28T09:07:02;14.60;43.10
33655;DHT22;19997;51.274;22.506;2023-04-28T09:09:29;14.40;42.20
33655;DHT22;19997;51.274;22.506;2023-04-28T09:11:57;14.30;43.00
33655;DHT22;19997;51.274;22.506;2023-04-28T09:14:26;14.20;43.40
33655;DHT22;19997;51.274;22.506;2023-04-28T09:16:53;14.10;43.60
33655;DHT22;19997;51.274;22.506;2023-04-28T09:19:22;14.20;44.10
33655;DHT22;19997;51.274;22.506;2023-04-28T09:21:51;14.30;44.30
33655;DHT22;19997;51.274;22.506;2023-04-28T09:24:28;14.40;44.50
33655;DHT22;19997;51.274;22.506;2023-04-28T09:26:56;14.60;44.30
33655;DHT22;19997;51.274;22.506;2023-04-28T09:29:23;14.80;43.70
33655;DHT22;19997;51.274;22.506;2023-04-28T09:31:51;14.90;43.60
33655;DHT22;19997;51.274;22.506;2023-04-28T09:34:19;14.80;43.10
33655;DHT22;19997;51.274;22.506;2023-04-28T09:36:48;14.80;43.10
33655;DHT22;19997;51.274;22.506;2023-04-28T09:39:27;14.60;43.60
33655;DHT22;19997;51.274;22.506;2023-04-28T09:41:55;14.40;44.10
33655;DHT22;19997;51.274;22.506;2023-04-28T09:44:23;14.40;44.30
33655;DHT22;19997;51.274;22.506;2023-04-28T09:46:50;14.30;44.60
33655;DHT22;19997;51.274;22.506;2023-04-28T09:49:17;14.30;44.90
33655;DHT22;19997;51.274;22.506;2023-04-28T09:51:46;14.30;44.50
33655;DHT22;19997;51.274;22.506;2023-04-28T09:54:15;14.30;44.40
33655;DHT22;19997;51.274;22.506;2023-04-28T09:56:43;14.30;44.50
33655;DHT22;19997;51.274;22.506;2023-04-28T09:59:13;14.20;45.00
33655;DHT22;19997;51.274;22.506;2023-04-28T10:01:40;14.20;44.70
33655;DHT22;19997;51.274;22.506;2023-04-28T10:04:09;14.30;45.20
33655;DHT22;19997;51.274;22.506;2023-04-28T10:06:38;14.40;44.60
33655;DHT22;19997;51.274;22.506;2023-04-28T10:09:07;14.50;45.10
33655;DHT22;19997;51.274;22.506;2023-04-28T10:11:35;14.50;45.00
33655;DHT22;19997;51.274;22.506;2023-04-28T10:14:02;14.50;45.30
33655;DHT22;19997;51.274;22.506;2023-04-28T10:16:30;14.50;44.50
33655;DHT22;19997;51.274;22.506;2023-04-28T10:18:57;14.40;44.90
33655;DHT22;19997;51.274;22.506;2023-04-28T10:21:26;14.50;45.90
33655;DHT22;19997;51.274;22.506;2023-04-28T10:24:05;14.60;45.40
33655;DHT22;19997;51.274;22.506;2023-04-28T10:27:02;14.60;45.30
33655;DHT22;19997;51.274;22.506;2023-04-28T10:29:31;14.60;46.10
33655;DHT22;19997;51.274;22.506;2023-04-28T10:32:19;14.80;46.10
33655;DHT22;19997;51.274;22.506;2023-04-28T10:34:46;14.90;45.70
33655;DHT22;19997;51.274;22.506;2023-04-28T10:37:14;14.90;45.40
33655;DHT22;19997;51.274;22.506;2023-04-28T10:42:55;14.70;46.10
33655;DHT22;19997;51.274;22.506;2023-04-28T10:46:03;14.70;46.30
33655;DHT22;19997;51.274;22.506;2023-04-28T10:49:02;14.90;46.80
33655;DHT22;19997;51.274;22.506;2023-04-28T10:51:32;15.20;46.80
33655;DHT22;19997;51.274;22.506;2023-04-28T10:54:16;15.40;46.20
33655;DHT22;19997;51.274;22.506;2023-04-28T10:57:14;15.50;46.50
33655;DHT22;19997;51.274;22.506;2023-04-28T10:59:44;15.80;46.30
33655;DHT22;19997;51.274;22.506;2023-04-28T11:02:41;16.10;46.40
33655;DHT22;19997;51.274;22.506;2023-04-28T11:05:12;16.20;44.90
33655;DHT22;19997;51.274;22.506;2023-04-28T11:07:40;16.10;45.20
33655;DHT22;19997;51.274;22.506;2023-04-28T11:10:07;16.00;45.50
33655;DHT22;19997;51.274;22.506;2023-04-28T11:12:34;15.90;45.80
33655;DHT22;19997;51.274;22.506;2023-04-28T11:15:13;15.90;45.40
33655;DHT22;19997;51.274;22.506;2023-04-28T11:17:41;15.70;45.50
33655;DHT22;19997;51.274;22.506;2023-04-28T11:20:11;15.80;45.60
33655;DHT22;19997;51.274;22.506;2023-04-28T11:22:39;15.70;45.50
33655;DHT22;19997;51.274;22.506;2023-04-28T11:25:07;15.70;45.70
33655;DHT22;19997;51.274;22.506;2023-04-28T11:27:34;15.80;45.50
33655;DHT22;19997;51.274;22.506;2023-04-28T11:30:02;15.80;44.90
33655;DHT22;19997;51.274;22.506;2023-04-28T11:32:34;15.80;45.30
33655;DHT22;19997;51.274;22.506;2023-04-28T11:35:01;15.80;45.40
33655;DHT22;19997;51.274;22.506;2023-04-28T11:37:34;15.80;45.70
33655;DHT22;19997;51.274;22.506;2023-04-28T11:40:09;15.90;44.50
33655;DHT22;19997;51.274;22.506;2023-04-28T11:42:46;15.90;44.70
33655;DHT22;19997;51.274;22.506;2023-04-28T11:45:13;16.00;45.00
33655;DHT22;19997;51.274;22.506;2023-04-28T11:47:41;16.20;45.00
33655;DHT22;19997;51.274;22.506;2023-04-28T11:50:09;16.30;44.30
33655;DHT22;19997;51.274;22.506;2023-04-28T11:52:47;16.30;44.40
33655;DHT22;19997;51.274;22.506;2023-04-28T11:55:16;16.40;44.70
33655;DHT22;19997;51.274;22.506;2023-04-28T11:57:43;16.50;43.80
33655;DHT22;19997;51.274;22.506;2023-04-28T12:00:14;16.50;43.30
33655;DHT22;19997;51.274;22.506;2023-04-28T12:02:45;16.50;44.20
33655;DHT22;19997;51.274;22.506;2023-04-28T12:05:12;16.50;43.20
33655;DHT22;19997;51.274;22.506;2023-04-28T12:07:40;16.40;42.70
33655;DHT22;19997;51.274;22.506;2023-04-28T12:10:12;16.30;43.30
33655;DHT22;19997;51.274;22.506;2023-04-28T12:12:40;16.20;43.00
33655;DHT22;19997;51.274;22.506;2023-04-28T12:15:08;16.20;43.10
33655;DHT22;19997;51.274;22.506;2023-04-28T12:17:36;16.20;43.50
33655;DHT22;19997;51.274;22.506;2023-04-28T12:20:09;16.30;44.20
33655;DHT22;19997;51.274;22.506;2023-04-28T12:22:43;16.40;44.40
33655;DHT22;19997;51.274;22.506;2023-04-28T12:25:12;16.50;44.00
33655;DHT22;19997;51.274;22.506;2023-04-28T12:27:41;16.40;43.90
33655;DHT22;19997;51.274;22.506;2023-04-28T12:30:25;16.50;44.10
33655;DHT22;19997;51.274;22.506;2023-04-28T12:32:52;16.50;43.40
33655;DHT22;19997;51.274;22.506;2023-04-28T12:35:36;16.40;43.20
33655;DHT22;19997;51.274;22.506;2023-04-28T12:38:03;16.10;43.30
33655;DHT22;19997;51.274;22.506;2023-04-28T12:40:31;15.90;43.50
33655;DHT22;19997;51.274;22.506;2023-04-28T12:42:58;15.70;43.80
33655;DHT22;19997;51.274;22.506;2023-04-28T12:45:25;15.50;44.20
33655;DHT22;19997;51.274;22.506;2023-04-28T12:47:52;15.40;44.60
33655;DHT22;19997;51.274;22.506;2023-04-28T12:50:20;15.40;44.70
33655;DHT22;19997;51.274;22.506;2023-04-28T12:52:48;15.30;45.10
33655;DHT22;19997;51.274;22.506;2023-04-28T12:55:15;15.30;45.20
33655;DHT22;19997;51.274;22.506;2023-04-28T12:57:42;15.30;45.30
33655;DHT22;19997;51.274;22.506;2023-04-28T13:00:11;15.30;45.60
33655;DHT22;19997;51.274;22.506;2023-04-28T13:02:41;15.30;44.90
33655;DHT22;19997;51.274;22.506;2023-04-28T13:05:08;15.30;45.40
33655;DHT22;19997;51.274;22.506;2023-04-28T13:07:35;15.40;45.60
33655;DHT22;19997;51.274;22.506;2023-04-28T13:10:05;15.60;45.60
33655;DHT22;19997;51.274;22.506;2023-04-28T13:12:32;15.80;45.60
33655;DHT22;19997;51.274;22.506;2023-04-28T13:15:00;15.90;44.90
33655;DHT22;19997;51.274;22.506;2023-04-28T13:17:28;15.80;44.30
33655;DHT22;19997;51.274;22.506;2023-04-28T13:19:55;15.60;44.10
33655;DHT22;19997;51.274;22.506;2023-04-28T13:22:22;15.50;44.60
33655;DHT22;19997;51.274;22.506;2023-04-28T13:24:49;15.60;44.90
33655;DHT22;19997;51.274;22.506;2023-04-28T13:27:18;15.80;45.20
33655;DHT22;19997;51.274;22.506;2023-04-28T13:29:45;16.00;45.40
33655;DHT22;19997;51.274;22.506;2023-04-28T13:32:12;16.10;44.30
33655;DHT22;19997;51.274;22.506;2023-04-28T13:34:39;16.20;44.00
33655;DHT22;19997;51.274;22.506;2023-04-28T13:37:06;16.20;43.40
33655;DHT22;19997;51.274;22.506;2023-04-28T13:39:34;16.20;43.80
33655;DHT22;19997;51.274;22.506;2023-04-28T13:42:01;16.20;44.30
33655;DHT22;19997;51.274;22.506;2023-04-28T13:44:29;16.20;44.20
33655;DHT22;19997;51.274;22.506;2023-04-28T13:46:56;16.30;44.30
33655;DHT22;19997;51.274;22.506;2023-04-28T13:49:24;16.30;44.30
33655;DHT22;19997;51.274;22.506;2023-04-28T13:51:51;16.30;44.10
33655;DHT22;19997;51.274;22.506;2023-04-28T13:54:18;16.20;43.80
33655;DHT22;19997;51.274;22.506;2023-04-28T13:56:45;16.00;43.70
33655;DHT22;19997;51.274;22.506;2023-04-28T13:59:12;15.90;44.10
33655;DHT22;19997;51.274;22.506;2023-04-28T14:01:41;15.80;44.40
33655;DHT22;19997;51.274;22.506;2023-04-28T14:04:08;15.80;44.40
33655;DHT22;19997;51.274;22.506;2023-04-28T14:06:35;15.80;45.00
33655;DHT22;19997;51.274;22.506;2023-04-28T14:09:03;15.90;45.20
33655;DHT22;19997;51.274;22.506;2023-04-28T14:11:30;16.10;45.20
33655;DHT22;19997;51.274;22.506;2023-04-28T14:13:57;16.30;45.50
33655;DHT22;19997;51.274;22.506;2023-04-28T14:16:24;16.50;45.00
33655;DHT22;19997;51.274;22.506;2023-04-28T14:18:53;16.60;44.60
33655;DHT22;19997;51.274;22.506;2023-04-28T14:21:20;16.70;44.30
33655;DHT22;19997;51.274;22.506;2023-04-28T14:23:47;16.80;44.20
33655;DHT22;19997;51.274;22.506;2023-04-28T14:26:14;16.90;44.00
33655;DHT22;19997;51.274;22.506;2023-04-28T14:28:41;17.30;44.10
33655;DHT22;19997;51.274;22.506;2023-04-28T14:31:08;17.80;43.70
33655;DHT22;19997;51.274;22.506;2023-04-28T14:33:36;18.30;43.30
33655;DHT22;19997;51.274;22.506;2023-04-28T14:36:05;18.90;43.10
33655;DHT22;19997;51.274;22.506;2023-04-28T14:38:32;19.50;41.60
33655;DHT22;19997;51.274;22.506;2023-04-28T14:40:59;19.80;41.20
33655;DHT22;19997;51.274;22.506;2023-04-28T14:43:26;20.00;40.70
33655;DHT22;19997;51.274;22.506;2023-04-28T14:45:53;20.40;40.70
33655;DHT22;19997;51.274;22.506;2023-04-28T14:48:21;20.90;40.40
33655;DHT22;19997;51.274;22.506;2023-04-28T14:50:48;21.50;40.10
33655;DHT22;19997;51.274;22.506;2023-04-28T14:53:17;21.90;39.30
33655;DHT22;19997;51.274;22.506;2023-04-28T14:55:44;22.20;38.90
33655;DHT22;19997;51.274;22.506;2023-04-28T14:58:12;22.10;38.60
33655;DHT22;19997;51.274;22.506;2023-04-28T15:00:39;21.90;38.60
33655;DHT22;19997;51.274;22.506;2023-04-28T15:03:06;21.70;38.20
33655;DHT22;19997;51.274;22.506;2023-04-28T15:05:33;21.60;37.50
33655;DHT22;19997;51.274;22.506;2023-04-28T15:08:00;21.70;37.70
33655;DHT22;19997;51.274;22.506;2023-04-28T15:10:36;21.50;37.40
33655;DHT22;19997;51.274;22.506;2023-04-28T15:13:04;21.30;37.30
33655;DHT22;19997;51.274;22.506;2023-04-28T15:15:31;21.60;37.30
33655;DHT22;19997;51.274;22.506;2023-04-28T15:17:58;22.20;37.20
33655;DHT22;19997;51.274;22.506;2023-04-28T15:20:26;22.80;37.10
33655;DHT22;19997;51.274;22.506;2023-04-28T15:22:53;23.90;36.60
33655;DHT22;19997;51.274;22.506;2023-04-28T15:25:20;24.60;35.70
33655;DHT22;19997;51.274;22.506;2023-04-28T15:27:49;24.50;33.50
33655;DHT22;19997;51.274;22.506;2023-04-28T15:30:17;24.40;33.60
33655;DHT22;19997;51.274;22.506;2023-04-28T15:32:45;24.80;33.40
33655;DHT22;19997;51.274;22.506;2023-04-28T15:35:12;25.10;33.10